Time;durP1;ratioP1;P1;durP2;ratioP2;P2;SDS_P1;SDS_P2;PMS_P1;PMS_P2;Temp;Humidity;BMP_temperature;BMP_pressure;BME280_temperature;BME280_humidity;BME280_pressure;Samples;Min_cycle;Max_cycle;Signal;HPM_P1;HPM_P2
2023/12/04 00:01:34;;;;;;;28.17;16.05;;;;;;;-1.18;100.00;100686.94;5059832;28;20072;-69
2023/12/04 00:04:04;;;;;;;30.23;15.75;;;;;;;-1.19;100.00;100677.41;5064941;28;20039;-68
2023/12/04 00:06:34;;;;;;;32.90;17.20;;;;;;;-1.20;100.00;100669.59;5046896;28;20044;-68
2023/12/04 00:09:02;;;;;;;28.02;16.33;;;;;;;-1.22;100.00;100669.59;5064894;28;20123;-69
2023/12/04 00:11:32;;;;;;;29.00;16.38;;;;;;;-1.30;100.00;100652.25;5041568;28;20098;-69
2023/12/04 00:14:00;;;;;;;23.33;12.90;;;;;;;-1.23;100.00;100656.59;5066213;28;20051;-69
2023/12/04 00:16:28;;;;;;;30.90;16.15;;;;;;;-1.21;100.00;100657.47;5081594;28;20086;-71
2023/12/04 00:18:57;;;;;;;29.17;17.42;;;;;;;-1.21;100.00;100657.47;5069957;28;20048;-68
2023/12/04 00:21:24;;;;;;;30.10;17.83;;;;;;;-1.22;100.00;100655.72;5082969;28;20134;-67
2023/12/04 00:23:54;;;;;;;30.77;17.73;;;;;;;-1.23;100.00;100657.47;5086337;28;20082;-68
2023/12/04 00:26:22;;;;;;;31.48;17.30;;;;;;;-1.31;100.00;100646.19;5084563;28;20040;-68
2023/12/04 00:28:51;;;;;;;30.33;17.98;;;;;;;-1.37;100.00;100645.25;5071901;28;20039;-68
2023/12/04 00:31:19;;;;;;;30.67;16.50;;;;;;;-1.43;100.00;100644.38;5085051;28;20040;-68
2023/12/04 00:33:48;;;;;;;29.13;16.75;;;;;;;-1.43;100.00;100652.19;5084006;28;20137;-67
2023/12/04 00:36:16;;;;;;;28.20;16.02;;;;;;;-1.62;100.00;100619.16;5065155;28;20519;-68
2023/12/04 00:38:44;;;;;;;28.70;16.48;;;;;;;-1.45;100.00;100634.84;5086434;28;20047;-68
2023/12/04 00:41:14;;;;;;;32.78;17.77;;;;;;;-1.49;100.00;100626.16;5078846;28;20046;-67
2023/12/04 00:43:41;;;;;;;32.35;17.48;;;;;;;-1.54;100.00;100624.38;5086026;28;20039;-70
2023/12/04 00:46:11;;;;;;;31.75;17.30;;;;;;;-1.62;100.00;100629.56;5067672;28;20529;-67
2023/12/04 00:48:46;;;;;;;31.08;17.45;;;;;;;-1.66;100.00;100627.78;5064240;28;20110;-67
2023/12/04 00:51:14;;;;;;;31.13;17.65;;;;;;;-1.74;100.00;100624.28;5080758;28;20065;-69
2023/12/04 00:53:42;;;;;;;32.08;17.40;;;;;;;-1.75;100.00;100617.38;5084897;28;20511;-67
2023/12/04 00:56:11;;;;;;;31.65;17.48;;;;;;;-1.80;100.00;100617.31;5051149;28;20500;-69
2023/12/04 00:58:39;;;;;;;32.38;17.95;;;;;;;-1.92;100.00;100603.41;5066471;28;20059;-67
2023/12/04 01:01:07;;;;;;;32.58;16.98;;;;;;;-1.82;100.00;100619.03;5080127;28;20496;-68
2023/12/04 01:03:40;;;;;;;32.03;17.23;;;;;;;-1.81;100.00;100607.78;5068737;28;20048;-69
2023/12/04 01:06:08;;;;;;;29.65;16.75;;;;;;;-1.75;100.00;100613.91;5063532;28;20052;-68
2023/12/04 01:08:36;;;;;;;31.13;16.52;;;;;;;-1.77;100.00;100606.09;5070013;28;20105;-69
2023/12/04 01:11:04;;;;;;;32.20;17.15;;;;;;;-1.85;100.00;100599.97;5029377;28;20044;-68
2023/12/04 01:13:32;;;;;;;31.92;17.77;;;;;;;-1.84;100.00;100607.78;5066362;28;20058;-68
2023/12/04 01:16:00;;;;;;;33.45;17.58;;;;;;;-1.84;100.00;100604.31;5052257;28;20109;-67
2023/12/04 01:18:28;;;;;;;29.77;16.90;;;;;;;-1.82;100.00;100600.00;5086527;28;20044;-68
2023/12/04 01:20:58;;;;;;;32.55;17.70;;;;;;;-1.82;100.00;100595.66;5057602;28;20048;-69
2023/12/04 01:23:26;;;;;;;31.92;17.85;;;;;;;-1.85;100.00;100582.66;5042171;28;20048;-67
2023/12/04 01:25:54;;;;;;;31.27;17.23;;;;;;;-1.90;100.00;100568.81;5069888;28;20043;-69
2023/12/04 01:28:22;;;;;;;34.33;17.92;;;;;;;-1.88;100.00;100580.06;5070345;28;20047;-69
2023/12/04 01:30:51;;;;;;;31.50;17.33;;;;;;;-1.87;100.00;100576.59;5064463;28;20072;-68
2023/12/04 01:33:19;;;;;;;32.25;16.98;;;;;;;-1.90;100.00;100579.19;5091816;28;20463;-66
2023/12/04 01:35:47;;;;;;;35.63;18.63;;;;;;;-2.20;100.00;100530.53;5072569;28;20131;-67
2023/12/04 01:38:16;;;;;;;34.15;17.38;;;;;;;-2.01;100.00;100575.66;5066893;28;20507;-68
2023/12/04 01:40:45;;;;;;;29.77;17.10;;;;;;;-2.03;100.00;100572.16;5071859;28;20089;-67
2023/12/04 01:43:13;;;;;;;29.63;16.85;;;;;;;-2.05;100.00;100575.63;5075957;28;20044;-68
2023/12/04 01:45:41;;;;;;;29.98;16.98;;;;;;;-2.18;100.00;100559.09;5067988;28;20067;-67
2023/12/04 01:48:10;;;;;;;29.63;16.60;;;;;;;-2.07;100.00;100573.03;5051382;28;20097;-68
2023/12/04 01:50:39;;;;;;;31.48;17.73;;;;;;;-2.03;100.00;100573.88;5083006;28;20457;-66
2023/12/04 01:53:07;;;;;;;31.33;17.33;;;;;;;-2.05;100.00;100567.84;5052636;28;20052;-66
2023/12/04 01:55:37;;;;;;;31.17;17.05;;;;;;;-2.08;100.00;100563.50;5068894;28;20074;-67
2023/12/04 01:58:07;;;;;;;33.80;18.33;;;;;;;-2.09;100.00;100561.75;5065334;28;20056;-67
2023/12/04 02:00:36;;;;;;;32.80;18.33;;;;;;;-2.08;100.00;100568.69;5065996;28;20111;-66
2023/12/04 02:03:08;;;;;;;32.83;17.40;;;;;;;-2.14;100.00;100553.94;5073000;28;20123;-67
2023/12/04 02:05:36;;;;;;;34.38;18.23;;;;;;;-2.16;100.00;100558.25;5070352;28;20432;-67
2023/12/04 02:08:06;;;;;;;32.50;17.95;;;;;;;-2.12;100.00;100561.75;5071612;28;20043;-67
2023/12/04 02:10:38;;;;;;;32.53;17.70;;;;;;;-2.09;100.00;100559.16;5068497;28;20047;-67
2023/12/04 02:13:07;;;;;;;30.85;17.55;;;;;;;-2.15;100.00;100546.16;5092248;28;20105;-67
2023/12/04 02:15:35;;;;;;;33.33;18.40;;;;;;;-2.05;100.00;100571.31;5034924;28;20809;-67
2023/12/04 02:18:03;;;;;;;36.03;18.83;;;;;;;-2.06;100.00;100574.75;5054556;28;20109;-67
2023/12/04 02:20:33;;;;;;;34.13;18.25;;;;;;;-2.10;100.00;100573.00;5066546;28;20040;-66
2023/12/04 02:23:03;;;;;;;33.75;17.95;;;;;;;-2.13;100.00;100572.97;5070988;28;20081;-67
2023/12/04 02:25:34;;;;;;;33.53;17.80;;;;;;;-2.17;100.00;100564.28;5071699;28;20036;-67
2023/12/04 02:28:07;;;;;;;33.13;18.05;;;;;;;-2.25;100.00;100563.38;5087574;28;20051;-68
2023/12/04 02:30:40;;;;;;;30.90;17.27;;;;;;;-2.25;100.00;100565.09;5081073;28;20039;-66
2023/12/04 02:33:09;;;;;;;33.30;17.95;;;;;;;-2.28;100.00;100557.28;5055616;28;20430;-66
2023/12/04 02:35:45;;;;;;;33.17;18.13;;;;;;;-2.28;100.00;100542.59;5067500;28;20110;-68
2023/12/04 02:38:14;;;;;;;33.30;18.23;;;;;;;-2.28;100.00;100541.72;5081125;28;20048;-69
2023/12/04 02:40:44;;;;;;;33.08;17.98;;;;;;;-2.31;100.00;100536.50;5049889;28;20039;-67
2023/12/04 02:43:12;;;;;;;26.35;13.93;;;;;;;-2.24;100.00;100530.53;5089759;28;20048;-68
2023/12/04 02:45:39;;;;;;;33.22;17.83;;;;;;;-2.25;100.00;100528.78;5071229;28;20550;-68
2023/12/04 02:48:10;;;;;;;33.40;18.40;;;;;;;-2.27;100.00;100527.91;5072149;28;20571;-67
2023/12/04 02:50:38;;;;;;;33.72;18.38;;;;;;;-2.22;100.00;100534.88;5049527;28;20048;-66
2023/12/04 02:53:05;;;;;;;34.17;18.58;;;;;;;-2.39;100.00;100507.09;5069211;28;20060;-67
2023/12/04 02:55:33;;;;;;;32.05;17.73;;;;;;;-2.28;100.00;100523.59;5084074;28;20055;-67
2023/12/04 02:58:03;;;;;;;34.08;18.52;;;;;;;-2.31;100.00;100520.97;5066586;28;20052;-66
2023/12/04 03:00:31;;;;;;;34.03;18.27;;;;;;;-2.29;100.00;100516.66;5070122;28;20050;-67
2023/12/04 03:03:00;;;;;;;32.83;18.00;;;;;;;-2.25;100.00;100511.50;5093278;28;20059;-67
2023/12/04 03:05:34;;;;;;;32.05;17.77;;;;;;;-2.22;100.00;100508.94;5092715;28;20071;-66
2023/12/04 03:08:03;;;;;;;32.17;18.33;;;;;;;-2.21;100.00;100497.72;5078947;28;20126;-67
2023/12/04 03:10:31;;;;;;;34.85;18.25;;;;;;;-2.16;100.00;100500.31;5075180;28;20055;-67
2023/12/04 03:12:59;;;;;;;32.35;17.92;;;;;;;-2.13;100.00;100495.13;5090626;28;20581;-68
2023/12/04 03:15:30;;;;;;;31.80;17.38;;;;;;;-2.06;100.00;100496.94;5084286;28;20063;-66
2023/12/04 03:18:00;;;;;;;32.50;18.27;;;;;;;-2.03;100.00;100480.47;5064670;28;20054;-66
2023/12/04 03:20:33;;;;;;;32.60;17.73;;;;;;;-2.08;100.00;100483.06;5063696;28;20326;-66
2023/12/04 03:23:02;;;;;;;31.73;17.63;;;;;;;-2.15;100.00;100479.56;5057891;28;20040;-67
2023/12/04 03:25:30;;;;;;;33.78;18.83;;;;;;;-2.14;100.00;100478.72;5062057;28;20044;-66
2023/12/04 03:27:58;;;;;;;32.30;18.02;;;;;;;-2.23;100.00;100468.28;5066339;28;20501;-68
2023/12/04 03:30:27;;;;;;;32.45;18.13;;;;;;;-2.25;100.00;100469.13;5062693;28;20094;-68
2023/12/04 03:32:57;;;;;;;34.00;17.55;;;;;;;-2.29;100.00;100469.97;5077973;28;20041;-67
2023/12/04 03:35:25;;;;;;;32.58;18.55;;;;;;;-2.31;100.00;100466.50;5070901;28;20059;-67
2023/12/04 03:37:55;;;;;;;33.83;18.35;;;;;;;-2.34;100.00;100463.88;5069797;28;20040;-69
2023/12/04 03:40:22;;;;;;;36.53;18.85;;;;;;;-2.39;100.00;100444.84;5065894;28;20409;-68
2023/12/04 03:42:51;;;;;;;31.65;17.48;;;;;;;-2.38;100.00;100447.44;5043790;28;20501;-67
2023/12/04 03:45:19;;;;;;;33.53;18.58;;;;;;;-2.40;100.00;100437.94;5069518;28;20175;-67
2023/12/04 03:47:47;;;;;;;33.90;19.60;;;;;;;-2.32;100.00;100451.78;5078185;28;20045;-67
2023/12/04 03:50:16;;;;;;;35.28;18.05;;;;;;;-2.33;100.00;100450.06;5082516;28;20413;-68
2023/12/04 03:52:45;;;;;;;34.13;18.10;;;;;;;-2.34;100.00;100437.94;5079799;28;20048;-68
2023/12/04 03:55:13;;;;;;;34.75;18.85;;;;;;;-2.34;100.00;100437.94;5068622;28;20482;-68
2023/12/04 03:57:42;;;;;;;33.55;17.70;;;;;;;-2.43;100.00;100422.34;5063244;28;20048;-66
2023/12/04 04:00:14;;;;;;;31.25;17.35;;;;;;;-2.36;100.00;100429.31;5062589;28;20135;-66
2023/12/04 04:02:44;;;;;;;33.60;18.02;;;;;;;-2.36;100.00;100424.97;5070855;28;20040;-66
2023/12/04 04:05:12;;;;;;;32.38;18.85;;;;;;;-2.39;100.00;100424.97;5082105;28;20040;-67
2023/12/04 04:07:42;;;;;;;33.17;17.67;;;;;;;-2.40;100.00;100420.63;5068982;28;20050;-67
2023/12/04 04:10:10;;;;;;;24.63;14.00;;;;;;;-2.39;100.00;100414.59;5067439;28;20044;-68
2023/12/04 04:12:42;;;;;;;33.42;16.88;;;;;;;-2.48;100.00;100402.44;5063841;28;20102;-68
2023/12/04 04:15:12;;;;;;;34.42;18.42;;;;;;;-2.41;100.00;100412.84;5065471;28;20139;-67
2023/12/04 04:17:44;;;;;;;35.40;17.55;;;;;;;-2.38;100.00;100418.06;5063552;28;20409;-67
2023/12/04 04:20:12;;;;;;;32.15;16.95;;;;;;;-2.29;100.00;100423.28;5082876;28;20048;-67
2023/12/04 04:22:41;;;;;;;32.58;17.90;;;;;;;-2.28;100.00;100415.50;5063656;28;20113;-69
2023/12/04 04:25:09;;;;;;;32.30;17.83;;;;;;;-2.27;100.00;100417.25;5043657;28;20041;-67
2023/12/04 04:27:37;;;;;;;32.60;18.00;;;;;;;-2.26;100.00;100418.13;5062739;28;20044;-67
2023/12/04 04:30:08;;;;;;;33.10;17.92;;;;;;;-2.28;100.00;100409.47;5063003;28;20094;-68
2023/12/04 04:32:36;;;;;;;24.65;14.23;;;;;;;-2.30;100.00;100411.16;5063227;28;20105;-66
2023/12/04 04:35:04;;;;;;;33.08;17.30;;;;;;;-2.28;100.00;100419.84;5065616;28;20051;-67
2023/12/04 04:37:33;;;;;;;31.42;17.50;;;;;;;-2.28;100.00;100418.09;5057550;28;20076;-67
2023/12/04 04:40:04;;;;;;;32.08;17.48;;;;;;;-2.27;100.00;100421.56;5066876;28;20547;-68
2023/12/04 04:42:33;;;;;;;34.85;17.80;;;;;;;-2.33;100.00;100416.34;5055848;28;20125;-68
2023/12/04 04:45:02;;;;;;;31.58;17.58;;;;;;;-2.27;100.00;100417.25;5063311;28;20032;-67
2023/12/04 04:47:31;;;;;;;33.55;18.50;;;;;;;-2.25;100.00;100427.63;5069943;28;20189;-67
2023/12/04 04:49:59;;;;;;;32.22;17.73;;;;;;;-2.21;100.00;100419.03;5063069;28;20048;-68
2023/12/04 04:52:28;;;;;;;32.13;18.45;;;;;;;-2.19;100.00;100432.84;5064558;28;20056;-67
2023/12/04 04:55:00;;;;;;;30.63;17.35;;;;;;;-2.20;100.00;100420.72;5069001;28;20162;-67
2023/12/04 04:57:32;;;;;;;33.15;18.50;;;;;;;-2.22;100.00;100400.00;5073435;28;20331;-67
2023/12/04 05:00:00;;;;;;;34.42;18.23;;;;;;;-2.19;100.00;100401.72;5066699;28;20044;-66
2023/12/04 05:02:31;;;;;;;33.10;18.33;;;;;;;-2.16;100.00;100412.09;5058134;28;20053;-68
2023/12/04 05:04:59;;;;;;;34.05;17.98;;;;;;;-2.16;100.00;100401.72;5062626;28;20063;-67
2023/12/04 05:07:27;;;;;;;33.10;17.90;;;;;;;-2.18;100.00;100393.06;5058168;28;20505;-67
2023/12/04 05:09:55;;;;;;;29.92;17.30;;;;;;;-2.14;100.00;100394.81;5065258;28;20050;-67
2023/12/04 05:12:23;;;;;;;35.13;17.75;;;;;;;-2.09;100.00;100384.47;5056779;28;20415;-68
2023/12/04 05:14:55;;;;;;;30.27;17.25;;;;;;;-2.10;100.00;100380.13;5051617;28;20548;-69
2023/12/04 05:17:23;;;;;;;32.10;17.45;;;;;;;-2.11;100.00;100379.28;5062977;28;20054;-67
2023/12/04 05:19:52;;;;;;;34.22;18.13;;;;;;;-2.08;100.00;100374.09;5080874;28;20071;-67
2023/12/04 05:22:20;;;;;;;33.25;17.58;;;;;;;-2.03;100.00;100374.97;5062066;28;20074;-67
2023/12/04 05:24:49;;;;;;;34.58;18.08;;;;;;;-2.03;100.00;100371.50;5061712;28;20052;-67
2023/12/04 05:27:16;;;;;;;31.30;17.42;;;;;;;-2.03;100.00;100380.16;5059881;28;20501;-67
2023/12/04 05:29:46;;;;;;;32.72;18.30;;;;;;;-2.02;100.00;100381.03;5063430;28;20049;-67
2023/12/04 05:32:16;;;;;;;35.20;19.15;;;;;;;-2.03;100.00;100385.34;5061631;28;20716;-68
2023/12/04 05:34:44;;;;;;;33.38;18.38;;;;;;;-2.02;100.00;100384.47;5037682;28;20527;-69
2023/12/04 05:37:12;;;;;;;30.92;17.88;;;;;;;-2.06;100.00;100374.13;5071218;28;20045;-68
2023/12/04 05:39:40;;;;;;;34.65;18.25;;;;;;;-2.08;100.00;100368.03;5048915;28;20068;-69
2023/12/04 05:42:09;;;;;;;30.70;17.25;;;;;;;-2.09;100.00;100367.19;5064495;28;20230;-69
2023/12/04 05:44:37;;;;;;;31.77;17.25;;;;;;;-2.04;100.00;100368.03;5066016;28;20401;-68
2023/12/04 05:47:08;;;;;;;31.23;16.90;;;;;;;-2.06;100.00;100364.59;5066763;28;20056;-68
2023/12/04 05:49:37;;;;;;;33.88;18.25;;;;;;;-2.13;100.00;100361.09;5068286;28;20624;-67
2023/12/04 05:52:07;;;;;;;32.97;18.70;;;;;;;-2.11;100.00;100366.31;5070181;28;20862;-67
2023/12/04 05:54:36;;;;;;;33.33;18.27;;;;;;;-2.14;100.00;100361.09;5054525;28;20115;-68
2023/12/04 05:57:04;;;;;;;30.90;17.92;;;;;;;-2.19;100.00;100350.69;5064253;28;20049;-67
2023/12/04 05:59:32;;;;;;;31.52;17.42;;;;;;;-2.19;100.00;100345.50;5068693;28;20041;-68
2023/12/04 06:02:03;;;;;;;31.83;17.25;;;;;;;-2.16;100.00;100347.25;5065376;28;20032;-68
2023/12/04 06:04:31;;;;;;;36.65;18.60;;;;;;;-2.10;100.00;100343.81;5063918;28;20068;-68
2023/12/04 06:07:00;;;;;;;36.10;16.92;;;;;;;-2.13;100.00;100337.75;5076419;28;20041;-68
2023/12/04 06:09:28;;;;;;;32.83;18.63;;;;;;;-2.09;100.00;100341.25;5075405;28;20047;-68
2023/12/04 06:11:56;;;;;;;33.70;19.00;;;;;;;-2.14;100.00;100330.84;5073727;28;20045;-67
2023/12/04 06:14:24;;;;;;;35.08;18.20;;;;;;;-2.10;100.00;100342.09;5074695;28;20064;-68
2023/12/04 06:16:53;;;;;;;31.95;17.83;;;;;;;-2.20;100.00;100325.63;5072512;28;20063;-67
2023/12/04 06:19:21;;;;;;;32.45;17.92;;;;;;;-2.28;100.00;100303.97;5097742;28;20048;-67
2023/12/04 06:21:49;;;;;;;31.88;18.30;;;;;;;-2.18;100.00;100325.63;5100153;28;20101;-67
2023/12/04 06:24:22;;;;;;;24.17;13.37;;;;;;;-2.26;100.00;100324.75;5081255;28;20045;-67
2023/12/04 06:26:51;;;;;;;35.10;18.05;;;;;;;-2.25;100.00;100324.75;5080074;28;20485;-67
2023/12/04 06:29:20;;;;;;;33.10;18.25;;;;;;;-2.26;100.00;100328.22;5078260;28;20055;-67
2023/12/04 06:31:51;;;;;;;30.40;16.52;;;;;;;-2.23;100.00;100329.94;5088768;28;20047;-66
2023/12/04 06:34:22;;;;;;;31.17;18.35;;;;;;;-2.16;100.00;100329.97;5065005;28;20117;-66
2023/12/04 06:36:51;;;;;;;32.60;17.77;;;;;;;-2.19;100.00;100329.06;5063208;28;20071;-68
2023/12/04 06:39:21;;;;;;;33.03;17.70;;;;;;;-2.16;100.00;100334.28;5085944;28;20063;-68
2023/12/04 06:41:50;;;;;;;30.08;17.00;;;;;;;-2.18;100.00;100336.88;5075135;28;20037;-66
2023/12/04 06:44:18;;;;;;;33.42;17.58;;;;;;;-2.07;100.00;100339.50;5050781;28;20048;-69
2023/12/04 06:46:50;;;;;;;31.35;17.60;;;;;;;-2.02;100.00;100345.56;5083682;28;20039;-66
2023/12/04 06:49:19;;;;;;;31.17;17.55;;;;;;;-2.02;100.00;100336.91;5069665;28;20507;-67
2023/12/04 06:51:47;;;;;;;28.58;16.17;;;;;;;-2.02;100.00;100337.78;5069634;28;20145;-66
2023/12/04 06:54:17;;;;;;;29.55;16.15;;;;;;;-1.98;100.00;100330.88;5080903;28;20064;-69
2023/12/04 06:56:48;;;;;;;29.75;16.73;;;;;;;-1.98;100.00;100318.78;5086767;28;20054;-69
2023/12/04 06:59:16;;;;;;;35.47;17.33;;;;;;;-1.97;100.00;100324.81;5090138;28;20036;-67
2023/12/04 07:01:47;;;;;;;29.67;16.83;;;;;;;-1.92;100.00;100321.41;5066639;28;20051;-68
2023/12/04 07:04:20;;;;;;;29.80;16.33;;;;;;;-1.92;100.00;100311.00;5068929;28;20048;-68
2023/12/04 07:06:51;;;;;;;29.73;16.88;;;;;;;-1.99;100.00;100308.38;5087571;28;20036;-68
2023/12/04 07:09:22;;;;;;;30.52;17.42;;;;;;;-1.95;100.00;100304.94;5086903;28;20040;-68
2023/12/04 07:11:53;;;;;;;32.30;17.77;;;;;;;-1.97;100.00;100304.06;5088110;28;20043;-66
2023/12/04 07:14:21;;;;;;;;;;;;;;;-1.99;100.00;100292.81;5081630;28;20101;-68
2023/12/04 07:16:49;;;;;;;27.55;16.45;;;;;;;-2.02;100.00;100285.03;5072965;28;19931;-68
2023/12/04 07:19:19;;;;;;;31.17;16.85;;;;;;;-2.06;100.00;100284.16;5086875;28;20055;-67
2023/12/04 07:21:49;;;;;;;32.65;17.15;;;;;;;-2.12;100.00;100274.63;5085767;28;20790;-67
2023/12/04 07:24:17;;;;;;;29.95;16.70;;;;;;;-2.06;100.00;100262.56;5076360;28;20056;-68
2023/12/04 07:26:46;;;;;;;33.42;16.30;;;;;;;-2.03;100.00;100247.81;5087530;28;20036;-66
2023/12/04 07:29:16;;;;;;;36.67;16.42;;;;;;;-1.98;100.00;100243.53;5086837;28;20048;-68
2023/12/04 07:31:43;;;;;;;29.42;16.65;;;;;;;-1.97;100.00;100237.47;5071519;28;20522;-68
2023/12/04 07:34:11;;;;;;;31.58;17.70;;;;;;;-1.92;100.00;100247.88;5052147;28;20060;-69
2023/12/04 07:36:41;;;;;;;29.83;16.45;;;;;;;-1.89;100.00;100253.91;5089414;28;20036;-67
2023/12/04 07:39:10;;;;;;;23.80;13.57;;;;;;;-1.93;100.00;100249.59;5071658;28;20524;-69
2023/12/04 07:41:38;;;;;;;32.00;17.33;;;;;;;-1.90;100.00;100247.00;5084212;28;20046;-67
2023/12/04 07:44:06;;;;;;;29.05;16.85;;;;;;;-1.87;100.00;100248.72;5064861;28;20047;-67
2023/12/04 07:46:37;;;;;;;31.30;17.25;;;;;;;-1.80;100.00;100272.09;5069100;28;20047;-67
2023/12/04 07:49:05;;;;;;;34.10;17.45;;;;;;;-1.76;100.00;100265.19;5070623;28;20109;-68
2023/12/04 07:51:33;;;;;;;30.00;17.00;;;;;;;-1.72;100.00;100260.84;5085639;28;20052;-67
2023/12/04 07:54:02;;;;;;;31.65;16.90;;;;;;;-1.68;100.00;100250.47;5067858;28;20044;-68
2023/12/04 07:56:31;;;;;;;30.90;17.20;;;;;;;-1.65;100.00;100249.59;5068029;28;20048;-69
2023/12/04 07:58:59;;;;;;;30.50;16.75;;;;;;;-1.67;100.00;100261.72;5068589;28;20464;-68
2023/12/04 08:01:27;;;;;;;30.38;15.90;;;;;;;-1.66;100.00;100247.88;5081997;28;20055;-67
2023/12/04 08:03:57;;;;;;;29.20;16.58;;;;;;;-1.66;100.00;100237.47;5082247;28;20448;-68
2023/12/04 08:06:28;;;;;;;34.13;17.98;;;;;;;-1.67;100.00;100238.34;5087637;28;20040;-67
2023/12/04 08:08:57;;;;;;;30.85;16.52;;;;;;;-1.69;100.00;100234.88;5086975;28;20063;-69
2023/12/04 08:11:25;;;;;;;30.33;16.55;;;;;;;-1.54;100.00;100245.25;5067727;28;20480;-68
2023/12/04 08:13:55;;;;;;;;;;;;;;;-1.45;100.00;100233.16;5080179;28;20458;-68
2023/12/04 08:16:27;;;;;;;30.10;15.95;;;;;;;-1.44;100.00;100239.22;5060730;28;19927;-67
2023/12/04 08:18:57;;;;;;;30.77;17.48;;;;;;;-1.40;100.00;100243.50;5070017;28;20044;-67
2023/12/04 08:21:25;;;;;;;26.25;15.35;;;;;;;-1.45;100.00;100221.91;5085973;28;20052;-67
2023/12/04 08:23:53;;;;;;;29.95;16.42;;;;;;;-1.33;100.00;100236.59;5083133;28;20040;-67
2023/12/04 08:26:22;;;;;;;30.15;15.63;;;;;;;-1.30;100.00;100229.66;5069901;28;20044;-67
2023/12/04 08:28:51;;;;;;;30.98;16.70;;;;;;;-1.26;100.00;100236.56;5053422;28;20240;-68
2023/12/04 08:31:19;;;;;;;30.13;16.02;;;;;;;-1.19;100.00;100227.91;5055022;28;20067;-68
2023/12/04 08:33:47;;;;;;;26.65;15.32;;;;;;;-1.14;100.00;100222.72;5058969;28;20058;-67
2023/12/04 08:36:17;;;;;;;26.63;14.65;;;;;;;-1.10;100.00;100214.88;5061000;28;20412;-68
2023/12/04 08:38:46;;;;;;;21.08;12.82;;;;;;;-1.00;100.00;100220.06;5067509;28;20047;-69
2023/12/04 08:41:14;;;;;;;28.90;15.65;;;;;;;-1.04;100.00;100197.56;5066197;28;20042;-68
2023/12/04 08:43:43;;;;;;;29.25;16.40;;;;;;;-1.01;100.00;100197.53;5061117;28;20139;-67
2023/12/04 08:46:13;;;;;;;27.25;15.70;;;;;;;-0.96;100.00;100186.28;5064894;28;20795;-69
2023/12/04 08:48:42;;;;;;;26.08;14.55;;;;;;;-0.96;100.00;100173.28;5069054;28;20052;-69
2023/12/04 08:51:17;;;;;;;28.55;16.38;;;;;;;-0.88;100.00;100181.03;5084986;28;20032;-67
2023/12/04 08:53:46;;;;;;;28.38;16.45;;;;;;;-0.83;100.00;100184.47;5076485;28;20048;-68
2023/12/04 08:56:14;;;;;;;28.92;15.82;;;;;;;-0.76;100.00;100173.16;5086555;28;20036;-68
2023/12/04 08:58:52;;;;;;;30.23;16.05;;;;;;;-0.67;100.00;100173.13;5061047;28;20040;-68
2023/12/04 09:01:21;;;;;;;26.98;16.00;;;;;;;-0.65;100.00;100171.41;5067877;28;20195;-67
2023/12/04 09:03:49;;;;;;;30.58;16.90;;;;;;;-0.59;100.00;100176.56;5058942;28;20045;-68
2023/12/04 09:06:19;;;;;;;25.42;15.52;;;;;;;-0.53;100.00;100171.31;5077485;28;20048;-68
2023/12/04 09:09:07;;;;;;;27.02;15.63;;;;;;;-0.47;100.00;100170.41;5048439;28;20068;-68
2023/12/04 09:11:42;;;;;;;25.00;15.30;;;;;;;-0.47;100.00;100170.41;5084422;28;20121;-68
2023/12/04 09:14:11;;;;;;;27.30;15.27;;;;;;;-0.43;100.00;100174.72;5077066;28;20497;-67
2023/12/04 09:16:40;;;;;;;30.30;16.38;;;;;;;-0.38;100.00;100162.56;5085162;28;20054;-68
2023/12/04 09:19:08;;;;;;;28.35;15.85;;;;;;;-0.32;100.00;100164.28;5051713;28;20055;-67
2023/12/04 09:21:39;;;;;;;27.35;15.07;;;;;;;-0.33;100.00;100159.94;5067475;28;20110;-68
2023/12/04 09:24:07;;;;;;;20.42;12.02;;;;;;;-0.31;100.00;100158.16;5068795;28;20540;-69
2023/12/04 09:26:35;;;;;;;27.25;15.15;;;;;;;-0.36;100.00;100169.50;5083528;28;20137;-67
2023/12/04 09:29:04;;;;;;;28.38;15.77;;;;;;;-0.40;100.00;100162.56;5080183;28;20050;-69
2023/12/04 09:31:33;;;;;;;25.25;15.63;;;;;;;-0.42;100.00;100166.91;5064716;28;20052;-68
2023/12/04 09:34:03;;;;;;;27.40;16.00;;;;;;;-0.41;100.00;100172.97;5057476;28;20056;-68
2023/12/04 09:36:31;;;;;;;25.38;15.23;;;;;;;-0.49;100.00;100159.19;5066111;28;20580;-68
2023/12/04 09:39:03;;;;;;;27.88;15.13;;;;;;;-0.62;100.00;100163.56;5068575;28;20749;-68
2023/12/04 09:41:33;;;;;;;26.38;15.38;;;;;;;-0.67;100.00;100167.94;5070466;28;20062;-68
2023/12/04 09:44:02;;;;;;;27.23;15.32;;;;;;;-0.70;100.00;100162.75;5069333;28;20032;-68
2023/12/04 09:46:31;;;;;;;26.00;14.60;;;;;;;-0.61;100.00;100162.69;5090760;28;20070;-68
2023/12/04 09:48:59;;;;;;;25.92;15.40;;;;;;;-0.55;100.00;100157.47;5068917;28;20043;-67
2023/12/04 09:51:29;;;;;;;28.20;15.68;;;;;;;-0.53;100.00;100150.53;5071190;28;20083;-67
2023/12/04 09:53:58;;;;;;;22.73;12.32;;;;;;;-0.52;100.00;100149.66;5083688;28;20059;-68
2023/12/04 09:56:33;;;;;;;23.15;14.20;;;;;;;-0.66;100.00;100119.41;5071596;28;20453;-70
2023/12/04 09:59:02;;;;;;;24.02;13.70;;;;;;;-0.50;100.00;100150.50;5082578;28;20089;-70
2023/12/04 10:01:31;;;;;;;25.88;14.45;;;;;;;-0.56;100.00;100137.53;5080840;28;20079;-69
2023/12/04 10:04:04;;;;;;;27.10;15.27;;;;;;;-0.78;100.00;100096.91;5078722;28;20041;-68
2023/12/04 10:06:33;;;;;;;25.38;14.88;;;;;;;-0.58;100.00;100147.06;5082458;28;20055;-67
2023/12/04 10:09:03;;;;;;;28.75;15.70;;;;;;;-0.50;100.00;100149.66;5060289;28;20142;-66
2023/12/04 10:11:32;;;;;;;26.40;14.52;;;;;;;-0.54;100.00;100135.78;5087134;28;20055;-67
2023/12/04 10:14:01;;;;;;;26.20;14.98;;;;;;;-0.60;100.00;100133.22;5061048;28;20051;-67
2023/12/04 10:16:35;;;;;;;26.42;14.30;;;;;;;-0.54;100.00;100130.59;5061846;28;20445;-67
2023/12/04 10:19:20;;;;;;;26.05;15.23;;;;;;;-0.46;100.00;100127.91;5070388;28;20097;-68
2023/12/04 10:21:50;;;;;;;22.55;13.38;;;;;;;-0.41;100.00;100115.75;5090540;28;20083;-67
2023/12/04 10:24:30;;;;;;;22.63;11.07;;;;;;;-0.38;100.00;100123.53;5081872;28;20055;-67
2023/12/04 10:27:00;;;;;;;22.70;13.52;;;;;;;-0.38;100.00;100119.19;5084934;28;20044;-68
2023/12/04 10:29:29;;;;;;;20.30;11.65;;;;;;;-0.32;100.00;100112.25;5084464;28;20119;-68
2023/12/04 10:32:00;;;;;;;25.67;13.97;;;;;;;-0.33;100.00;100113.97;5063630;28;20052;-67
2023/12/04 10:34:33;;;;;;;26.38;14.35;;;;;;;-0.25;100.00;100108.69;5082264;28;20957;-67
2023/12/04 10:37:04;;;;;;;24.67;14.55;;;;;;;-0.23;100.00;100104.34;5083905;28;20051;-67
2023/12/04 10:39:46;;;;;;;24.90;14.38;;;;;;;-0.22;100.00;100103.47;5092520;28;20127;-68
2023/12/04 10:42:26;;;;;;;23.45;13.98;;;;;;;-0.13;99.81;100101.66;5091128;28;20115;-69
2023/12/04 10:44:56;;;;;;;26.27;14.55;;;;;;;-0.12;99.17;100099.91;5047289;28;20051;-67
2023/12/04 10:47:25;;;;;;;25.30;14.20;;;;;;;-0.11;100.00;100091.22;5090624;28;20047;-67
2023/12/04 10:49:54;;;;;;;28.17;14.27;;;;;;;-0.01;100.00;100098.09;5048961;28;20101;-69
2023/12/04 10:52:23;;;;;;;25.45;14.43;;;;;;;0.07;99.91;100106.69;5092815;28;20588;-68
2023/12/04 10:54:51;;;;;;;24.27;13.73;;;;;;;0.24;95.41;100089.16;5084120;28;20067;-67
2023/12/04 10:57:25;;;;;;;22.90;13.88;;;;;;;0.29;95.00;100087.38;5093454;28;20044;-68
2023/12/04 10:59:58;;;;;;;22.73;13.63;;;;;;;0.45;90.91;100088.09;5067501;28;20046;-67
2023/12/04 11:02:27;;;;;;;26.15;13.63;;;;;;;0.52;87.82;100094.94;5086679;28;20070;-70
2023/12/04 11:05:03;;;;;;;25.13;14.70;;;;;;;0.47;87.46;100090.69;5061723;28;20066;-68
2023/12/04 11:07:34;;;;;;;26.25;13.85;;;;;;;0.55;87.47;100087.09;5090138;28;20036;-69
2023/12/04 11:10:25;;;;;;;24.13;13.73;;;;;;;0.67;84.78;100088.69;5076364;28;20482;-68
2023/12/04 11:12:59;;;;;;;21.85;12.52;;;;;;;0.70;83.74;100078.25;5087860;28;20052;-68